Terminal Aerodrome Forecast
Issued by NWS

Home | Current Version | Previous Version | Text Only | Print | Product List | Glossary On
Versions: 1 2 3 4 5 6 7 8 9 10 11 12 13 14
000
FTUS43 KEAX 150500
TAFMKC
TAF
KMKC 150520Z 1506/1606 10009KT P6SM -SHRA SCT040 OVC060
     FM150800 08008KT P6SM -SHRA OVC035
     FM151400 10012KT P6SM -SHRA SCT015 OVC025
     FM152200 11013KT P6SM SCT015 OVC025=

USA.gov is the U.S. government's official web portal to all federal, state and local government web resources and services.